Time;durP1;ratioP1;P1;durP2;ratioP2;P2;SDS_P1;SDS_P2;PMS_P1;PMS_P2;Temp;Humidity;BMP_temperature;BMP_pressure;BME280_temperature;BME280_humidity;BME280_pressure;Samples;Min_cycle;Max_cycle;Signal;HPM_P1;HPM_P2
2022/01/30 00:00:56;;;;;;;31.93;7.57;;;8.10;99.90;;;;;;4982894;28;20211;-79
2022/01/30 00:03:23;;;;;;;29.67;7.23;;;8.10;99.90;;;;;;4983227;28;20932;-80
2022/01/30 00:05:50;;;;;;;36.80;8.50;;;8.10;99.90;;;;;;4983533;28;20199;-78
2022/01/30 00:08:16;;;;;;;35.47;7.43;;;8.10;99.90;;;;;;4983158;28;20228;-80
2022/01/30 00:10:44;;;;;;;37.50;7.97;;;8.10;99.90;;;;;;4982437;28;20204;-78
2022/01/30 00:13:16;;;;;;;39.23;7.00;;;8.10;99.90;;;;;;4988159;28;20346;-80
2022/01/30 00:15:47;;;;;;;36.83;7.10;;;8.00;99.90;;;;;;5003887;28;20214;-79
2022/01/30 00:18:28;;;;;;;27.07;7.20;;;8.00;99.90;;;;;;5003859;28;20243;-81
2022/01/30 00:21:08;;;;;;;34.77;9.73;;;8.00;99.90;;;;;;5004027;28;20214;-80
2022/01/30 00:23:39;;;;;;;34.80;7.20;;;8.00;99.90;;;;;;5003425;28;20230;-79
2022/01/30 00:26:08;;;;;;;34.97;7.00;;;8.00;99.90;;;;;;5003634;28;20206;-79
2022/01/30 00:28:37;;;;;;;24.20;6.43;;;8.00;99.90;;;;;;4998826;28;20666;-80
2022/01/30 00:31:05;;;;;;;32.20;6.43;;;8.00;99.90;;;;;;4984337;28;20814;-80
2022/01/30 00:33:31;;;;;;;34.10;6.63;;;8.00;99.90;;;;;;5000915;28;20242;-80
2022/01/30 00:35:58;;;;;;;27.60;7.80;;;8.00;99.90;;;;;;5003784;28;20210;-79
2022/01/30 00:38:26;;;;;;;42.43;7.07;;;8.00;99.90;;;;;;5003275;28;20199;-79
2022/01/30 00:40:54;;;;;;;36.60;7.53;;;8.00;99.90;;;;;;4984913;28;20238;-79
2022/01/30 00:43:21;;;;;;;37.77;7.93;;;8.00;99.90;;;;;;4984586;28;20239;-79
2022/01/30 00:45:50;;;;;;;30.77;6.80;;;8.00;99.90;;;;;;4989644;28;20584;-79
2022/01/30 00:48:17;;;;;;;35.97;6.90;;;8.00;99.90;;;;;;5004281;28;20506;-78
2022/01/30 00:50:43;;;;;;;36.27;7.53;;;7.90;99.90;;;;;;5003318;28;20607;-82
2022/01/30 00:53:10;;;;;;;35.47;8.03;;;7.90;99.90;;;;;;5009055;28;20588;-79
2022/01/30 00:55:37;;;;;;;33.03;6.23;;;7.90;99.90;;;;;;5025369;28;20206;-80
2022/01/30 00:58:04;;;;;;;27.80;7.23;;;8.00;99.90;;;;;;5026143;28;20386;-81
2022/01/30 01:00:32;;;;;;;39.00;7.10;;;7.90;99.90;;;;;;5025605;28;20330;-82
2022/01/30 01:03:01;;;;;;;38.97;7.67;;;7.90;99.90;;;;;;5007711;28;20203;-80
2022/01/30 01:05:29;;;;;;;34.47;6.07;;;7.90;99.90;;;;;;5005685;28;20207;-79
2022/01/30 01:07:58;;;;;;;34.53;5.90;;;7.90;99.90;;;;;;5006155;28;20238;-82
2022/01/30 01:10:33;;;;;;;33.17;6.17;;;7.80;99.90;;;;;;5005528;28;20199;-80
2022/01/30 01:13:12;;;;;;;32.10;7.30;;;7.90;99.90;;;;;;5006341;28;20583;-79
2022/01/30 01:23:56;;;;;;;27.93;6.07;;;8.00;99.90;;;;;;5008292;28;20257;-79
2022/01/30 01:26:24;;;;;;;23.23;5.67;;;8.00;99.90;;;;;;5009897;28;20191;-80
2022/01/30 01:28:52;;;;;;;26.30;6.37;;;7.90;99.90;;;;;;5008640;28;20623;-80
2022/01/30 01:31:19;;;;;;;28.77;6.00;;;7.90;99.90;;;;;;5008652;28;20210;-81
2022/01/30 01:34:02;;;;;;;31.20;5.27;;;7.90;99.90;;;;;;5009269;28;20199;-79
2022/01/30 01:36:29;;;;;;;29.03;6.67;;;7.90;99.90;;;;;;5009055;28;20989;-77
2022/01/30 01:38:56;;;;;;;18.40;4.17;;;7.90;99.90;;;;;;5008891;28;20207;-79
2022/01/30 01:41:25;;;;;;;22.40;4.10;;;7.90;99.90;;;;;;5008194;28;20199;-79
2022/01/30 01:43:53;;;;;;;22.67;4.00;;;7.90;99.90;;;;;;5007872;28;20235;-81
2022/01/30 01:46:24;;;;;;;21.67;5.77;;;7.90;99.90;;;;;;5017640;28;20217;-80
2022/01/30 01:48:53;;;;;;;15.67;3.17;;;7.90;99.90;;;;;;5009182;28;20203;-80
2022/01/30 01:51:23;;;;;;;18.27;4.10;;;7.90;99.90;;;;;;5009408;28;20211;-81
2022/01/30 01:53:53;;;;;;;21.57;3.37;;;7.90;99.90;;;;;;5009442;28;20195;-81
2022/01/30 01:56:22;;;;;;;17.87;4.87;;;8.00;99.90;;;;;;5010102;28;20203;-80
2022/01/30 01:58:49;;;;;;;20.47;4.40;;;8.00;99.90;;;;;;5009070;28;20207;-80
2022/01/30 02:01:16;;;;;;;23.30;4.47;;;8.00;99.90;;;;;;5009713;28;20226;-81
2022/01/30 02:03:44;;;;;;;17.10;4.57;;;7.90;99.90;;;;;;5009142;28;20301;-80
2022/01/30 02:06:16;;;;;;;24.27;4.03;;;7.80;99.90;;;;;;5009436;28;20733;-80
2022/01/30 02:08:47;;;;;;;24.43;4.47;;;7.80;99.90;;;;;;5009195;28;20729;-81
2022/01/30 02:11:17;;;;;;;17.87;3.77;;;7.70;99.90;;;;;;5009433;28;20238;-80
2022/01/30 02:14:00;;;;;;;21.97;3.50;;;7.70;99.90;;;;;;5007974;28;20479;-80
2022/01/30 02:25:01;;;;;;;18.63;3.83;;;7.60;99.90;;;;;;5007640;28;20253;-79
2022/01/30 02:27:34;;;;;;;17.27;3.50;;;7.60;99.90;;;;;;5007656;28;20219;-80
2022/01/30 02:30:01;;;;;;;17.93;3.17;;;7.50;99.90;;;;;;5007956;28;20207;-79
2022/01/30 02:32:28;;;;;;;15.60;3.73;;;7.50;99.90;;;;;;5011308;28;20289;-81
2022/01/30 02:34:54;;;;;;;13.47;3.40;;;7.50;99.90;;;;;;5027042;28;20195;-80
2022/01/30 02:37:21;;;;;;;19.47;3.90;;;7.50;99.90;;;;;;5027560;28;20206;-79
2022/01/30 02:39:50;;;;;;;23.67;5.10;;;7.50;99.90;;;;;;5008161;28;20222;-80
2022/01/30 02:42:20;;;;;;;19.67;4.30;;;7.60;99.90;;;;;;5007988;28;20229;-80
2022/01/30 02:44:52;;;;;;;16.93;5.00;;;7.60;99.90;;;;;;5007443;28;20238;-79
2022/01/30 02:47:26;;;;;;;19.90;3.97;;;7.50;99.90;;;;;;5025431;28;20202;-79
2022/01/30 02:50:12;;;;;;;21.27;4.73;;;7.50;99.90;;;;;;5012282;28;20224;-79
2022/01/30 02:52:43;;;;;;;22.07;4.10;;;7.50;99.90;;;;;;5008940;28;20620;-79
2022/01/30 02:55:13;;;;;;;15.60;3.50;;;7.50;99.90;;;;;;5007755;28;20290;-80
2022/01/30 02:57:40;;;;;;;21.03;5.00;;;7.50;99.90;;;;;;5007930;28;20199;-84
2022/01/30 03:00:10;;;;;;;23.57;4.03;;;7.40;99.90;;;;;;5007749;28;20226;-81
2022/01/30 03:02:37;;;;;;;18.13;3.83;;;7.40;99.90;;;;;;5006875;28;20575;-80
2022/01/30 03:05:04;;;;;;;23.37;4.10;;;7.40;99.90;;;;;;5007727;28;20901;-81
2022/01/30 03:07:31;;;;;;;19.53;4.97;;;7.40;99.90;;;;;;5007107;28;20214;-79
2022/01/30 03:09:58;;;;;;;28.03;4.50;;;7.40;99.90;;;;;;5007185;28;20214;-81
2022/01/30 03:12:26;;;;;;;18.07;4.70;;;7.40;99.90;;;;;;5007148;28;20230;-81
2022/01/30 03:14:53;;;;;;;19.90;3.87;;;7.40;99.90;;;;;;5006695;28;20512;-80
2022/01/30 03:17:20;;;;;;;24.43;4.63;;;7.30;99.90;;;;;;5006870;28;20210;-82
2022/01/30 03:19:46;;;;;;;22.23;5.63;;;7.30;99.90;;;;;;5007862;28;20231;-81
2022/01/30 03:22:13;;;;;;;21.23;3.83;;;7.30;99.90;;;;;;5008282;28;20202;-82
2022/01/30 03:24:40;;;;;;;20.23;4.93;;;7.30;99.90;;;;;;5007775;28;20242;-81
2022/01/30 03:27:11;;;;;;;18.20;4.00;;;7.30;99.90;;;;;;5007788;28;20717;-82
2022/01/30 03:29:48;;;;;;;21.83;5.73;;;7.30;99.90;;;;;;5007495;28;20214;-80
2022/01/30 03:32:15;;;;;;;19.63;4.20;;;7.30;99.90;;;;;;5007625;28;20288;-80
2022/01/30 03:34:42;;;;;;;17.63;4.30;;;7.40;99.90;;;;;;5007202;28;20206;-79
2022/01/30 03:37:08;;;;;;;20.40;4.77;;;7.30;99.90;;;;;;5006539;28;20219;-80
2022/01/30 03:39:35;;;;;;;17.67;4.47;;;7.40;99.90;;;;;;5006758;28;20211;-78
2022/01/30 03:42:02;;;;;;;29.27;5.90;;;7.40;99.90;;;;;;5006626;28;20207;-80
2022/01/30 03:44:29;;;;;;;27.13;4.83;;;7.50;99.90;;;;;;5005940;28;20807;-80
2022/01/30 03:46:57;;;;;;;15.70;4.60;;;7.40;99.90;;;;;;5020493;28;20199;-78
2022/01/30 03:49:24;;;;;;;17.67;4.63;;;7.40;99.90;;;;;;5025421;28;20588;-79
2022/01/30 03:51:51;;;;;;;27.40;4.30;;;7.40;99.90;;;;;;5026348;28;20211;-79
2022/01/30 03:54:18;;;;;;;21.67;4.60;;;7.40;99.90;;;;;;5026580;28;20199;-78
2022/01/30 03:56:45;;;;;;;23.60;5.47;;;7.40;99.90;;;;;;5026341;28;20203;-79
2022/01/30 03:59:12;;;;;;;21.40;4.07;;;7.40;99.90;;;;;;5026317;28;20611;-81
2022/01/30 04:01:38;;;;;;;24.57;4.13;;;7.40;99.90;;;;;;5024864;28;20195;-79
2022/01/30 04:04:07;;;;;;;11.97;3.43;;;7.40;99.90;;;;;;5007200;28;20234;-79
2022/01/30 04:06:34;;;;;;;23.70;3.77;;;7.40;99.90;;;;;;5005815;28;20206;-79
2022/01/30 04:09:03;;;;;;;19.43;5.73;;;7.40;99.90;;;;;;5006261;28;20191;-80
2022/01/30 04:11:30;;;;;;;22.93;5.23;;;7.40;99.90;;;;;;5006085;28;20554;-80
2022/01/30 04:13:57;;;;;;;18.23;5.07;;;7.40;99.90;;;;;;5005923;28;20214;-80
2022/01/30 04:16:24;;;;;;;26.23;5.20;;;7.30;99.90;;;;;;5006660;28;20245;-80
2022/01/30 04:18:51;;;;;;;22.17;5.50;;;7.30;99.90;;;;;;5008586;28;20238;-80
2022/01/30 04:21:19;;;;;;;23.77;4.90;;;7.40;99.90;;;;;;5024588;28;20210;-80
2022/01/30 04:23:46;;;;;;;31.50;5.53;;;7.30;99.90;;;;;;5025858;28;20253;-79
2022/01/30 04:26:13;;;;;;;27.30;5.90;;;7.30;99.90;;;;;;5009792;28;20242;-82
2022/01/30 04:28:40;;;;;;;26.13;6.70;;;7.40;99.90;;;;;;5004826;28;20219;-80
2022/01/30 04:31:07;;;;;;;29.50;7.70;;;7.40;99.90;;;;;;5005434;28;20196;-79
2022/01/30 04:33:35;;;;;;;20.40;4.97;;;7.40;99.90;;;;;;5005373;28;20195;-82
2022/01/30 04:36:07;;;;;;;28.03;5.40;;;7.40;99.90;;;;;;5005587;28;20210;-79
2022/01/30 04:38:51;;;;;;;22.67;5.63;;;7.40;99.90;;;;;;5006058;28;20214;-78
2022/01/30 04:57:56;;;;;;;22.03;4.57;;;7.30;99.90;;;;;;5005730;28;20353;-79
2022/01/30 05:00:38;;;;;;;24.17;6.03;;;7.30;99.90;;;;;;5006604;28;20203;-78
2022/01/30 05:03:25;;;;;;;28.37;4.90;;;7.30;99.90;;;;;;5005563;28;20282;-79
2022/01/30 05:06:02;;;;;;;22.13;5.03;;;7.30;99.90;;;;;;5005684;28;20275;-79
2022/01/30 05:08:29;;;;;;;24.93;6.57;;;7.20;99.90;;;;;;5006206;28;20210;-79
2022/01/30 05:10:57;;;;;;;22.53;4.90;;;7.20;99.90;;;;;;5005180;28;20200;-81
2022/01/30 05:13:28;;;;;;;32.10;5.70;;;7.20;99.90;;;;;;5006466;28;20211;-81
2022/01/30 05:15:55;;;;;;;20.67;4.70;;;7.20;99.90;;;;;;5005511;28;20195;-81
2022/01/30 05:18:23;;;;;;;30.63;5.07;;;7.20;99.90;;;;;;5006017;28;20768;-79
2022/01/30 05:20:52;;;;;;;25.83;6.23;;;7.20;99.90;;;;;;5006672;28;20507;-80
2022/01/30 05:23:20;;;;;;;25.23;5.33;;;7.20;99.90;;;;;;5024802;28;20629;-80
2022/01/30 05:25:47;;;;;;;27.10;5.90;;;7.30;99.90;;;;;;5025602;28;20281;-81
2022/01/30 05:28:17;;;;;;;24.73;5.10;;;7.20;99.90;;;;;;5026347;28;20210;-80
2022/01/30 05:30:45;;;;;;;23.47;5.53;;;7.20;99.90;;;;;;5024072;28;20206;-82
2022/01/30 05:33:12;;;;;;;19.37;4.47;;;7.20;99.90;;;;;;5006378;28;20215;-79
2022/01/30 05:35:39;;;;;;;32.47;6.60;;;7.20;99.90;;;;;;5006327;28;20211;-80
2022/01/30 05:38:06;;;;;;;25.13;5.10;;;7.10;99.90;;;;;;5005756;28;20199;-80
2022/01/30 05:40:37;;;;;;;24.50;5.40;;;7.10;99.90;;;;;;5005781;28;20600;-79
2022/01/30 05:43:05;;;;;;;23.97;6.20;;;7.10;99.90;;;;;;5005897;28;20210;-81
2022/01/30 05:45:37;;;;;;;27.17;6.17;;;7.10;99.90;;;;;;5007531;28;20226;-80
2022/01/30 05:48:09;;;;;;;28.67;5.27;;;7.20;99.90;;;;;;5023219;28;20282;-79
2022/01/30 05:50:37;;;;;;;32.63;7.33;;;7.20;99.90;;;;;;5004904;28;20207;-79
2022/01/30 05:53:03;;;;;;;27.23;5.00;;;7.20;99.90;;;;;;5004245;28;20211;-79
2022/01/30 05:55:31;;;;;;;34.77;6.63;;;7.20;99.90;;;;;;5005604;28;20210;-79
2022/01/30 05:57:58;;;;;;;32.17;5.90;;;7.10;99.90;;;;;;5004940;28;20937;-80
2022/01/30 06:00:25;;;;;;;22.27;6.43;;;7.10;99.90;;;;;;5006528;28;20207;-78
2022/01/30 06:02:54;;;;;;;25.23;5.07;;;7.10;99.90;;;;;;5009041;28;20210;-78
2022/01/30 06:05:23;;;;;;;31.63;6.90;;;7.10;99.90;;;;;;5007979;28;20227;-79
2022/01/30 06:07:52;;;;;;;31.97;6.60;;;7.10;99.90;;;;;;5008578;28;20223;-80
2022/01/30 06:10:20;;;;;;;35.40;7.57;;;7.00;99.90;;;;;;5008545;28;20207;-80
2022/01/30 06:12:47;;;;;;;25.67;6.17;;;7.00;99.90;;;;;;5007372;28;20226;-81
2022/01/30 06:15:14;;;;;;;35.77;6.53;;;7.00;99.90;;;;;;5008930;28;20632;-79
2022/01/30 06:17:42;;;;;;;29.20;5.77;;;7.10;99.90;;;;;;5007718;28;20611;-79
2022/01/30 06:20:12;;;;;;;25.93;7.23;;;7.10;99.90;;;;;;5007115;28;20690;-79
2022/01/30 06:22:39;;;;;;;29.87;5.90;;;7.00;99.90;;;;;;5009047;28;20213;-79
2022/01/30 06:25:07;;;;;;;28.03;6.20;;;7.00;99.90;;;;;;5009608;28;20234;-81
2022/01/30 06:27:34;;;;;;;28.63;5.87;;;7.00;99.90;;;;;;5009354;28;20211;-80
2022/01/30 06:30:01;;;;;;;28.27;5.77;;;6.90;99.90;;;;;;5009539;28;20222;-80
2022/01/30 06:32:28;;;;;;;27.17;6.17;;;7.00;99.90;;;;;;5008765;28;20535;-81
2022/01/30 06:34:55;;;;;;;28.00;5.83;;;7.00;99.90;;;;;;5009301;28;20199;-79
2022/01/30 06:37:23;;;;;;;35.37;6.90;;;7.00;99.90;;;;;;5009396;28;20211;-80
2022/01/30 06:39:50;;;;;;;22.57;5.03;;;7.00;99.90;;;;;;5008330;28;20219;-81
2022/01/30 06:42:18;;;;;;;26.27;5.53;;;7.10;99.90;;;;;;5009136;28;20372;-79
2022/01/30 06:44:45;;;;;;;27.23;5.80;;;7.10;99.90;;;;;;5009241;28;20203;-79
2022/01/30 06:47:12;;;;;;;29.00;6.70;;;7.20;99.90;;;;;;5025406;28;20297;-80
2022/01/30 06:49:40;;;;;;;30.17;5.50;;;7.20;99.90;;;;;;5013022;28;20231;-80
2022/01/30 06:52:09;;;;;;;29.73;6.50;;;7.20;99.90;;;;;;5008537;28;20203;-82
2022/01/30 06:54:38;;;;;;;37.90;7.50;;;7.20;99.90;;;;;;5008109;28;20207;-85
2022/01/30 06:57:06;;;;;;;29.97;6.63;;;7.30;99.90;;;;;;5007901;28;20207;-78
2022/01/30 06:59:34;;;;;;;32.93;6.60;;;7.30;99.90;;;;;;5007407;28;20214;-80
2022/01/30 07:02:01;;;;;;;28.87;5.53;;;7.20;99.90;;;;;;5007202;28;20211;-81
2022/01/30 07:04:27;;;;;;;42.03;7.50;;;7.30;99.90;;;;;;5008439;28;20297;-79
2022/01/30 07:06:54;;;;;;;27.10;5.67;;;7.20;99.90;;;;;;5008045;28;20320;-78
2022/01/30 07:09:22;;;;;;;31.77;6.13;;;7.20;99.90;;;;;;5007457;28;20230;-80
2022/01/30 07:11:50;;;;;;;22.90;6.03;;;7.20;99.90;;;;;;5012551;28;20653;-80
2022/01/30 07:14:17;;;;;;;28.43;6.73;;;7.20;99.90;;;;;;5008196;28;20215;-79
2022/01/30 07:16:44;;;;;;;39.57;7.60;;;7.20;99.90;;;;;;5008836;28;20199;-79
2022/01/30 07:19:11;;;;;;;28.97;5.93;;;7.20;99.90;;;;;;5007784;28;20251;-79
2022/01/30 07:21:38;;;;;;;38.30;6.70;;;7.20;99.90;;;;;;5006438;28;20261;-78
2022/01/30 07:24:06;;;;;;;36.20;5.93;;;7.20;99.90;;;;;;5007122;28;20215;-80
2022/01/30 07:26:33;;;;;;;27.37;6.97;;;7.20;99.90;;;;;;5008759;28;20226;-79
2022/01/30 07:29:03;;;;;;;32.90;5.67;;;7.20;99.90;;;;;;5007313;28;20338;-78
2022/01/30 07:31:30;;;;;;;29.30;7.07;;;7.30;99.90;;;;;;5007183;28;20195;-79
2022/01/30 07:33:57;;;;;;;23.00;6.43;;;7.20;99.90;;;;;;5007230;28;20215;-80
2022/01/30 07:36:24;;;;;;;30.23;5.83;;;7.20;99.90;;;;;;5007111;28;20215;-80
2022/01/30 07:38:51;;;;;;;25.13;5.23;;;7.10;99.90;;;;;;5006959;28;20214;-78
2022/01/30 07:41:18;;;;;;;24.63;4.87;;;7.10;99.90;;;;;;5007429;28;20214;-79
2022/01/30 07:43:45;;;;;;;26.37;5.33;;;7.10;99.90;;;;;;5006627;28;20215;-80
2022/01/30 07:46:13;;;;;;;31.47;6.27;;;7.20;99.90;;;;;;5015308;28;20226;-80
2022/01/30 07:48:40;;;;;;;23.53;5.30;;;7.10;99.90;;;;;;5010320;28;20207;-80
2022/01/30 07:51:21;;;;;;;28.97;6.47;;;7.10;99.90;;;;;;5006859;28;20218;-79
2022/01/30 07:54:04;;;;;;;28.70;5.87;;;7.10;99.90;;;;;;5006393;28;20289;-80
2022/01/30 07:56:31;;;;;;;25.63;5.40;;;7.10;99.90;;;;;;5009639;28;20211;-82
2022/01/30 07:58:58;;;;;;;21.77;5.30;;;7.10;99.90;;;;;;5009237;28;20214;-82
2022/01/30 08:01:26;;;;;;;22.40;5.10;;;7.10;99.90;;;;;;5009135;28;20210;-81
2022/01/30 08:03:53;;;;;;;21.63;5.07;;;7.10;99.90;;;;;;5021179;28;20218;-82
2022/01/30 08:06:19;;;;;;;25.23;6.40;;;7.10;99.90;;;;;;5029070;28;20219;-82
2022/01/30 08:08:46;;;;;;;26.57;5.93;;;7.00;99.90;;;;;;5018738;28;20866;-79
2022/01/30 08:11:13;;;;;;;32.27;5.97;;;7.00;99.90;;;;;;5018546;28;20221;-79
2022/01/30 08:13:40;;;;;;;31.90;6.33;;;7.00;99.90;;;;;;5022067;28;20640;-78
2022/01/30 08:16:07;;;;;;;25.50;6.93;;;7.00;99.90;;;;;;5006487;28;20195;-79
2022/01/30 08:18:37;;;;;;;28.10;5.83;;;7.10;99.90;;;;;;5004500;28;20596;-80
2022/01/30 08:21:04;;;;;;;35.27;7.43;;;7.10;99.90;;;;;;5004777;28;20849;-79
2022/01/30 08:23:32;;;;;;;33.90;6.80;;;7.10;99.90;;;;;;5005008;28;20230;-80
2022/01/30 08:26:00;;;;;;;20.33;5.43;;;7.10;99.90;;;;;;5003863;28;20214;-79
2022/01/30 08:28:26;;;;;;;35.10;7.33;;;7.10;99.90;;;;;;5005089;28;20211;-78
2022/01/30 08:30:53;;;;;;;30.60;6.83;;;7.20;99.90;;;;;;5004931;28;20207;-79
2022/01/30 08:33:20;;;;;;;29.67;5.33;;;7.30;99.90;;;;;;5005411;28;20809;-78
2022/01/30 08:35:49;;;;;;;24.93;6.03;;;7.40;99.90;;;;;;5005392;28;20203;-77
2022/01/30 08:38:18;;;;;;;30.80;7.10;;;7.50;99.90;;;;;;5006450;28;20664;-78
2022/01/30 08:40:45;;;;;;;28.57;5.93;;;7.50;99.90;;;;;;5004420;28;20253;-80
2022/01/30 08:43:13;;;;;;;29.30;6.20;;;7.60;99.90;;;;;;5005819;28;20618;-79
2022/01/30 08:45:41;;;;;;;23.87;6.00;;;7.60;99.90;;;;;;5009095;28;20681;-78
2022/01/30 08:48:08;;;;;;;32.03;6.57;;;7.60;99.90;;;;;;5024860;28;20209;-79
2022/01/30 08:50:35;;;;;;;24.23;5.07;;;7.60;99.90;;;;;;5010823;28;20227;-80
2022/01/30 08:53:04;;;;;;;33.00;8.77;;;7.50;99.90;;;;;;5004995;28;20211;-80
2022/01/30 08:55:33;;;;;;;36.27;7.57;;;7.50;99.90;;;;;;5024017;22;20244;-79
2022/01/30 08:58:07;;;;;;;30.50;6.77;;;7.60;99.90;;;;;;5009098;28;20281;-78
2022/01/30 09:00:34;;;;;;;30.33;7.07;;;7.50;99.90;;;;;;5005768;28;20265;-79
2022/01/30 09:03:02;;;;;;;26.00;6.00;;;7.60;99.90;;;;;;5004069;28;20196;-78
2022/01/30 09:05:30;;;;;;;34.83;5.80;;;7.60;99.90;;;;;;5005505;28;20199;-79
2022/01/30 09:07:56;;;;;;;26.77;6.67;;;7.60;99.90;;;;;;5005509;28;20441;-79
2022/01/30 09:10:25;;;;;;;21.33;5.23;;;7.70;99.90;;;;;;5006062;28;20982;-81
2022/01/30 09:12:51;;;;;;;24.20;6.03;;;7.70;99.90;;;;;;5006339;28;20242;-80
2022/01/30 09:15:19;;;;;;;32.37;6.30;;;7.70;99.90;;;;;;5005423;28;20203;-79
2022/01/30 09:17:45;;;;;;;34.70;7.57;;;7.70;99.90;;;;;;5005060;28;20203;-80
2022/01/30 09:20:13;;;;;;;28.00;5.33;;;7.70;99.90;;;;;;5005278;28;20378;-81
2022/01/30 09:22:40;;;;;;;30.83;6.87;;;7.70;99.90;;;;;;5004498;28;20210;-80
2022/01/30 09:25:08;;;;;;;28.87;6.60;;;7.70;99.90;;;;;;5004072;28;20215;-80
2022/01/30 09:27:37;;;;;;;33.87;6.50;;;7.80;99.90;;;;;;5004573;28;20239;-81
2022/01/30 09:30:06;;;;;;;27.00;6.77;;;7.80;99.90;;;;;;5003985;28;20203;-79
2022/01/30 09:32:33;;;;;;;33.87;6.40;;;7.80;99.90;;;;;;5005682;28;20198;-81
2022/01/30 09:35:00;;;;;;;35.70;6.77;;;7.90;99.90;;;;;;5005602;28;20211;-81
2022/01/30 09:37:27;;;;;;;41.20;9.37;;;7.80;99.90;;;;;;5008432;28;20203;-80
2022/01/30 09:39:54;;;;;;;37.83;7.63;;;7.90;99.90;;;;;;5009159;28;20815;-81
2022/01/30 09:42:24;;;;;;;30.53;7.37;;;7.90;99.90;;;;;;5008504;28;20631;-80
2022/01/30 09:44:52;;;;;;;24.53;6.03;;;7.90;99.90;;;;;;5007872;28;20218;-78
2022/01/30 09:47:19;;;;;;;38.73;7.90;;;8.00;99.90;;;;;;5008245;28;20226;-79
2022/01/30 09:49:50;;;;;;;29.47;6.33;;;8.00;99.90;;;;;;5008770;28;20199;-81
2022/01/30 09:52:18;;;;;;;25.27;6.47;;;8.00;99.90;;;;;;5009379;28;20253;-80
2022/01/30 09:54:45;;;;;;;25.63;6.83;;;8.00;99.90;;;;;;5008065;28;20985;-79
2022/01/30 09:57:12;;;;;;;29.77;6.77;;;8.00;99.90;;;;;;5027354;28;20219;-79
2022/01/30 09:59:39;;;;;;;29.13;7.53;;;8.10;99.90;;;;;;5028291;28;20490;-79
2022/01/30 10:02:09;;;;;;;31.93;8.90;;;8.10;99.90;;;;;;5018586;28;20211;-79
2022/01/30 10:04:37;;;;;;;31.73;5.50;;;8.10;99.90;;;;;;5008839;28;20515;-81
2022/01/30 10:07:11;;;;;;;31.20;6.70;;;8.10;99.90;;;;;;5007858;28;20322;-80
2022/01/30 10:09:44;;;;;;;26.97;5.77;;;8.20;99.90;;;;;;5009354;28;20219;-81
2022/01/30 10:12:15;;;;;;;26.63;6.27;;;8.10;99.90;;;;;;5009412;28;20230;-80
2022/01/30 10:14:50;;;;;;;21.33;5.57;;;8.10;99.90;;;;;;5008459;28;20800;-80
2022/01/30 10:17:32;;;;;;;29.93;7.23;;;8.10;99.90;;;;;;5028228;28;20799;-80
2022/01/30 10:20:06;;;;;;;26.93;6.10;;;8.20;99.90;;;;;;5013549;28;20203;-79
2022/01/30 10:22:35;;;;;;;35.87;7.30;;;8.30;99.90;;;;;;5008924;28;20215;-84
2022/01/30 10:25:02;;;;;;;34.33;7.30;;;8.30;99.90;;;;;;5009465;28;20207;-82
2022/01/30 10:27:29;;;;;;;31.83;6.93;;;8.40;99.90;;;;;;5014851;28;20262;-85
2022/01/30 10:29:58;;;;;;;33.03;6.53;;;8.40;99.90;;;;;;5028720;28;20214;-80
2022/01/30 10:32:27;;;;;;;33.37;6.33;;;8.40;99.90;;;;;;5028645;28;20356;-80
2022/01/30 10:35:01;;;;;;;33.83;7.73;;;8.40;99.90;;;;;;5021243;28;20854;-81
2022/01/30 10:37:28;;;;;;;30.97;7.10;;;8.50;99.90;;;;;;5008863;28;20223;-82
2022/01/30 10:40:10;;;;;;;27.47;6.57;;;8.50;99.90;;;;;;5008618;28;20199;-80
2022/01/30 10:42:43;;;;;;;30.57;7.23;;;8.50;99.90;;;;;;5008279;28;20206;-79
2022/01/30 10:45:13;;;;;;;31.10;7.13;;;8.50;99.90;;;;;;5019030;28;20560;-78
2022/01/30 10:47:43;;;;;;;32.13;7.27;;;8.50;99.90;;;;;;5007502;28;20223;-78
2022/01/30 10:50:13;;;;;;;24.37;7.00;;;8.50;99.90;;;;;;5008013;28;20207;-81
2022/01/30 10:53:02;;;;;;;27.70;7.13;;;8.50;99.90;;;;;;5006346;28;20214;-80
2022/01/30 10:55:34;;;;;;;34.40;6.37;;;8.50;99.90;;;;;;5007279;28;20249;-79
2022/01/30 10:58:01;;;;;;;28.00;7.80;;;8.50;99.90;;;;;;5006968;28;20234;-79
2022/01/30 11:00:44;;;;;;;35.37;6.60;;;8.60;99.90;;;;;;5006405;28;20215;-80
2022/01/30 11:03:44;;;;;;;30.73;7.13;;;8.70;99.90;;;;;;5005407;28;20227;-81
2022/01/30 11:06:13;;;;;;;22.97;5.93;;;8.70;99.90;;;;;;5007439;28;20770;-80
2022/01/30 11:08:41;;;;;;;27.40;6.03;;;8.70;99.90;;;;;;5006636;28;20588;-78
2022/01/30 11:11:12;;;;;;;20.80;5.70;;;8.70;99.90;;;;;;5008094;28;20227;-82
2022/01/30 11:13:58;;;;;;;22.77;5.87;;;8.80;99.90;;;;;;5007686;28;20215;-80
2022/01/30 11:19:27;;;;;;;32.13;6.83;;;8.80;99.90;;;;;;4948204;28;20332;-79
2022/01/30 11:21:58;;;;;;;26.67;6.77;;;8.90;99.90;;;;;;4946295;29;20303;-80
2022/01/30 11:24:27;;;;;;;33.43;7.37;;;8.90;99.90;;;;;;4973899;28;20215;-81
2022/01/30 11:26:54;;;;;;;29.87;6.37;;;8.90;99.90;;;;;;5006824;28;20219;-80
2022/01/30 11:29:22;;;;;;;23.17;5.93;;;8.90;99.90;;;;;;5008102;28;20235;-80
2022/01/30 11:31:50;;;;;;;27.53;5.63;;;8.90;99.90;;;;;;5008882;28;20500;-81
2022/01/30 11:34:17;;;;;;;39.77;7.57;;;9.00;99.90;;;;;;5008011;28;20211;-82
2022/01/30 11:36:48;;;;;;;27.47;7.93;;;9.00;99.90;;;;;;5022897;28;20257;-79
2022/01/30 11:39:18;;;;;;;32.17;6.57;;;9.00;99.90;;;;;;5028259;28;20206;-80
2022/01/30 11:42:06;;;;;;;27.13;6.77;;;9.00;99.90;;;;;;5028138;28;20193;-80
2022/01/30 11:44:33;;;;;;;28.87;6.47;;;9.00;99.90;;;;;;5008890;28;20587;-82
2022/01/30 11:47:22;;;;;;;29.40;6.93;;;9.10;99.90;;;;;;5007981;28;20572;-79
2022/01/30 11:49:55;;;;;;;25.33;6.50;;;9.10;99.90;;;;;;5008606;28;20249;-82
2022/01/30 11:52:49;;;;;;;31.17;7.03;;;9.10;99.90;;;;;;5010099;28;20195;-81
2022/01/30 11:55:56;;;;;;;26.23;6.60;;;9.20;99.90;;;;;;5010179;28;20243;-84
2022/01/30 11:58:47;;;;;;;33.67;6.83;;;9.30;99.90;;;;;;5008945;28;20282;-84
2022/01/30 12:01:36;;;;;;;33.50;7.07;;;9.40;99.90;;;;;;5009306;28;20214;-80
2022/01/30 12:04:06;;;;;;;27.93;6.23;;;9.40;99.90;;;;;;5010057;28;20281;-81
2022/01/30 12:06:35;;;;;;;27.63;5.67;;;9.40;99.90;;;;;;5009487;28;20199;-82
2022/01/30 12:09:18;;;;;;;24.53;6.20;;;9.30;99.90;;;;;;5027624;28;20610;-84
2022/01/30 12:11:52;;;;;;;38.40;7.50;;;9.30;99.90;;;;;;5027829;28;20222;-86
2022/01/30 12:14:48;;;;;;;33.23;7.00;;;9.20;99.90;;;;;;5029682;28;20255;-83
2022/01/30 12:17:15;;;;;;;40.23;7.73;;;9.20;99.90;;;;;;5009051;28;20667;-82
2022/01/30 12:20:07;;;;;;;22.83;5.47;;;9.10;99.90;;;;;;5021649;28;20621;-80
2022/01/30 12:22:42;;;;;;;24.33;5.80;;;9.10;99.90;;;;;;5007996;28;20203;-82
2022/01/30 12:25:40;;;;;;;36.33;7.10;;;9.20;99.90;;;;;;5007497;28;20214;-82
2022/01/30 12:28:14;;;;;;;26.07;6.47;;;9.10;99.90;;;;;;5005272;28;20231;-79
2022/01/30 12:30:51;;;;;;;30.00;6.40;;;9.10;99.90;;;;;;5006406;28;20676;-82
2022/01/30 12:33:42;;;;;;;36.27;6.00;;;9.00;99.90;;;;;;5008507;28;20523;-84
2022/01/30 12:36:14;;;;;;;42.63;8.07;;;8.90;99.90;;;;;;5017782;28;20503;-84
2022/01/30 12:38:41;;;;;;;23.97;5.70;;;8.90;99.90;;;;;;5030147;28;20210;-83
2022/01/30 12:41:17;;;;;;;30.30;6.60;;;9.00;99.90;;;;;;5029173;28;20218;-81
2022/01/30 12:43:44;;;;;;;36.50;6.70;;;9.10;99.90;;;;;;5029592;28;20201;-83
2022/01/30 12:46:12;;;;;;;30.73;6.53;;;9.10;99.90;;;;;;5029631;28;20574;-83
2022/01/30 12:48:39;;;;;;;23.57;5.27;;;9.20;99.90;;;;;;5020674;28;20281;-82
2022/01/30 12:51:12;;;;;;;21.90;5.80;;;9.30;99.90;;;;;;5009817;28;20198;-83
2022/01/30 12:53:41;;;;;;;20.27;5.67;;;9.30;99.90;;;;;;5026956;28;20631;-83
2022/01/30 12:56:09;;;;;;;32.07;7.97;;;9.30;99.90;;;;;;5029106;28;20565;-86
2022/01/30 12:58:42;;;;;;;25.37;6.07;;;9.20;99.90;;;;;;5013694;28;20203;-79
2022/01/30 13:01:11;;;;;;;22.17;5.70;;;9.10;99.90;;;;;;5008183;28;20211;-81
2022/01/30 13:03:38;;;;;;;31.77;7.40;;;9.10;99.90;;;;;;5009160;28;20200;-82
2022/01/30 13:06:06;;;;;;;23.93;5.97;;;9.10;99.90;;;;;;5008636;28;20211;-82
2022/01/30 13:08:51;;;;;;;26.93;6.00;;;9.10;99.90;;;;;;5008340;28;20234;-81
2022/01/30 13:11:20;;;;;;;25.50;5.73;;;9.10;99.90;;;;;;5013023;28;20219;-81
2022/01/30 13:13:57;;;;;;;29.27;6.47;;;9.20;99.90;;;;;;5012201;28;20608;-81
2022/01/30 13:16:26;;;;;;;22.43;6.37;;;9.10;99.90;;;;;;5012727;28;20200;-82
2022/01/30 13:18:52;;;;;;;23.13;5.23;;;9.10;99.90;;;;;;5012024;28;20218;-80
2022/01/30 13:21:24;;;;;;;23.37;5.20;;;9.10;99.90;;;;;;5011511;28;20314;-82
2022/01/30 13:23:53;;;;;;;29.20;5.60;;;9.10;99.90;;;;;;5011719;28;20207;-81
2022/01/30 13:26:31;;;;;;;34.67;6.00;;;9.10;99.90;;;;;;5011577;28;20238;-82
2022/01/30 13:28:59;;;;;;;26.00;7.17;;;9.20;99.90;;;;;;5011814;28;20238;-85
2022/01/30 13:31:27;;;;;;;22.00;6.57;;;9.30;99.90;;;;;;5028159;28;20203;-80
2022/01/30 13:34:15;;;;;;;32.27;5.87;;;9.40;99.90;;;;;;5035168;28;20596;-83
2022/01/30 13:36:43;;;;;;;25.93;7.50;;;9.40;99.90;;;;;;5021186;28;20654;-79
2022/01/30 13:39:14;;;;;;;24.63;6.67;;;9.40;99.90;;;;;;5074035;23;20512;-79